Time;durP1;ratioP1;P1;durP2;ratioP2;P2;SDS_P1;SDS_P2;PMS_P1;PMS_P2;Temp;Humidity;BMP_temperature;BMP_pressure;BME280_temperature;BME280_humidity;BME280_pressure;Samples;Min_cycle;Max_cycle;Signal;HPM_P1;HPM_P2
2021/12/10 00:02:17;;;;;;;;;;;;;;;;;;2208887;59;1329;-70
2021/12/10 00:04:51;;;;;;;;;;;;;;;;;;2210875;59;1290;-69
2021/12/10 00:07:26;;;;;;;;;;;;;;;;;;2209885;67;1157;-70
2021/12/10 00:10:01;;;;;;;;;;;;;;;;;;2211384;67;2075;-70
2021/12/10 00:12:40;;;;;;;;;;;;;;;;;;2211201;59;1282;-70
2021/12/10 00:15:14;;;;;;;;;;;;;;;;;;2209868;67;1138;-70
2021/12/10 00:17:48;;;;;;;;;;;;;;;;;;2211342;67;1252;-70
2021/12/10 00:20:23;;;;;;;;;;;;;;;;;;2211401;59;1694;-70
2021/12/10 00:22:59;;;;;;;;;;;;;;;;;;2210488;59;2130;-69
2021/12/10 00:25:37;;;;;;;;;;;;;;;;;;2210727;59;1561;-70
2021/12/10 00:28:20;;;;;;;;;;;;;;;;;;2206980;67;2137;-70
2021/12/10 00:31:05;;;;;;;;;;;;;;;;;;2210159;59;2090;-70
2021/12/10 00:33:43;;;;;;;;;;;;;;;;;;2210559;67;1191;-70
2021/12/10 00:36:17;;;;;;;;;;;;;;;;;;2208871;67;1250;-69
2021/12/10 00:38:51;;;;;;;;;;;;;;;;;;2209829;67;1283;-69
2021/12/10 00:41:26;;;;;;;;;;;;;;;;;;2211748;59;1246;-70
2021/12/10 00:44:02;;;;;;;;;;;;;;;;;;2211470;67;1082;-69
2021/12/10 00:46:37;;;;;;;;;;;;;;;;;;2210205;67;1358;-69
2021/12/10 00:49:11;;;;;;;;;;;;;;;;;;2210901;67;1984;-70
2021/12/10 00:51:47;;;;;;;;;;;;;;;;;;2211567;59;1267;-69
2021/12/10 00:54:21;;;;;;;;;;;;;;;;;;2210934;59;1190;-69
2021/12/10 00:56:54;;;;;;;;;;;;;;;;;;2211007;59;1737;-69
2021/12/10 00:59:34;;;;;;;;;;;;;;;;;;2207362;67;1296;-69
2021/12/10 01:02:08;;;;;;;;;;;;;;;;;;2211320;59;1318;-69
2021/12/10 01:04:46;;;;;;;;;;;;;;;;;;2210847;67;1307;-69
2021/12/10 01:07:22;;;;;;;;;;;;;;;;;;2210134;67;1161;-69
2021/12/10 01:09:58;;;;;;;;;;;;;;;;;;2209498;67;1968;-69
2021/12/10 01:12:35;;;;;;;;;;;;;;;;;;2210859;59;1316;-69
2021/12/10 01:24:16;;;;;;;;;;;;;;;;;;2205942;59;1412;-69
2021/12/10 01:27:00;;;;;;;;;;;;;;;;;;2205691;67;1130;-69
2021/12/10 01:29:38;;;;;;;;;;;;;;;;;;2209996;59;1949;-69
2021/12/10 01:35:24;;;;;;;;;;;;;;;;;;2209947;67;1284;-69
2021/12/10 01:37:58;;;;;;;;;;;;;;;;;;2209443;67;1187;-69
2021/12/10 01:40:36;;;;;;;;;;;;;;;;;;2210437;59;1272;-69
2021/12/10 01:43:22;;;;;;;;;;;;;;;;;;2210309;67;1267;-69
2021/12/10 01:46:02;;;;;;;;;;;;;;;;;;2210738;67;1223;-69
2021/12/10 01:48:47;;;;;;;;;;;;;;;;;;2208292;67;1251;-69
2021/12/10 01:51:25;;;;;;;;;;;;;;;;;;2210811;59;1939;-69
2021/12/10 01:54:02;;;;;;;;;;;;;;;;;;2209893;67;1272;-69
2021/12/10 01:56:37;;;;;;;;;;;;;;;;;;2210010;67;1324;-69
2021/12/10 01:59:13;;;;;;;;;;;;;;;;;;2211174;67;1225;-69
2021/12/10 02:01:51;;;;;;;;;;;;;;;;;;2211487;59;1257;-69
2021/12/10 02:04:29;;;;;;;;;;;;;;;;;;2210576;59;1863;-69
2021/12/10 02:07:03;;;;;;;;;;;;;;;;;;2211217;67;1156;-69
2021/12/10 02:09:37;;;;;;;;;;;;;;;;;;2211135;67;1996;-69
2021/12/10 02:12:10;;;;;;;;;;;;;;;;;;2210466;59;2773;-69
2021/12/10 02:14:44;;;;;;;;;;;;;;;;;;2210137;67;1111;-68
2021/12/10 02:17:18;;;;;;;;;;;;;;;;;;2210539;67;1311;-68
2021/12/10 02:19:54;;;;;;;;;;;;;;;;;;2210768;59;1706;-69
2021/12/10 02:22:30;;;;;;;;;;;;;;;;;;2210907;59;1298;-69
2021/12/10 02:25:05;;;;;;;;;;;;;;;;;;2211958;67;1159;-68
2021/12/10 02:27:38;;;;;;;;;;;;;;;;;;2211538;67;1212;-69
2021/12/10 02:30:13;;;;;;;;;;;;;;;;;;2212613;59;1917;-69
2021/12/10 02:32:47;;;;;;;;;;;;;;;;;;2210429;59;1859;-69
2021/12/10 02:35:21;;;;;;;;;;;;;;;;;;2211201;59;1765;-69
2021/12/10 02:37:58;;;;;;;;;;;;;;;;;;2210361;67;1227;-69
2021/12/10 02:40:33;;;;;;;;;;;;;;;;;;2210540;59;1988;-69
2021/12/10 02:43:08;;;;;;;;;;;;;;;;;;2211112;67;1257;-69
2021/12/10 02:45:43;;;;;;;;;;;;;;;;;;2211502;67;1242;-69
2021/12/10 02:48:16;;;;;;;;;;;;;;;;;;2211549;67;1277;-69
2021/12/10 02:50:52;;;;;;;;;;;;;;;;;;2211154;67;1965;-69
2021/12/10 02:53:34;;;;;;;;;;;;;;;;;;2210677;53;3763;-69
2021/12/10 02:56:07;;;;;;;;;;;;;;;;;;2208445;59;1668;-68
2021/12/10 02:58:41;;;;;;;;;;;;;;;;;;2211017;67;1283;-69
2021/12/10 03:01:16;;;;;;;;;;;;;;;;;;2212072;59;1287;-69
2021/12/10 03:03:49;;;;;;;;;;;;;;;;;;2209329;67;1208;-68
2021/12/10 03:06:23;;;;;;;;;;;;;;;;;;2208941;67;1113;-68
2021/12/10 03:09:00;;;;;;;;;;;;;;;;;;2210555;59;1228;-68
2021/12/10 03:11:36;;;;;;;;;;;;;;;;;;2210250;59;1912;-68
2021/12/10 03:14:12;;;;;;;;;;;;;;;;;;2211184;59;1184;-69
2021/12/10 03:16:46;;;;;;;;;;;;;;;;;;2208821;67;1166;-68
2021/12/10 03:19:19;;;;;;;;;;;;;;;;;;2211196;67;1150;-68
2021/12/10 03:21:52;;;;;;;;;;;;;;;;;;2210411;59;1994;-69
2021/12/10 03:24:30;;;;;;;;;;;;;;;;;;2211237;59;1326;-69
2021/12/10 03:27:08;;;;;;;;;;;;;;;;;;2209719;59;1262;-69
2021/12/10 03:29:42;;;;;;;;;;;;;;;;;;2211602;59;1984;-69
2021/12/10 03:32:18;;;;;;;;;;;;;;;;;;2209491;59;1718;-69
2021/12/10 03:34:51;;;;;;;;;;;;;;;;;;2211241;59;1799;-69
2021/12/10 03:37:24;;;;;;;;;;;;;;;;;;2210892;67;1296;-69
2021/12/10 03:40:00;;;;;;;;;;;;;;;;;;2211263;59;1759;-69
2021/12/10 03:42:34;;;;;;;;;;;;;;;;;;2210048;67;1298;-69
2021/12/10 03:45:08;;;;;;;;;;;;;;;;;;2211231;67;1045;-69
2021/12/10 03:47:41;;;;;;;;;;;;;;;;;;2210278;59;1346;-69
2021/12/10 03:50:22;;;;;;;;;;;;;;;;;;2211254;67;1999;-69
2021/12/10 03:52:55;;;;;;;;;;;;;;;;;;2210297;59;1233;-69
2021/12/10 03:55:32;;;;;;;;;;;;;;;;;;2210981;59;1424;-69
2021/12/10 03:58:05;;;;;;;;;;;;;;;;;;2210141;59;1702;-69
2021/12/10 04:00:40;;;;;;;;;;;;;;;;;;2211480;60;1209;-69
2021/12/10 04:03:14;;;;;;;;;;;;;;;;;;2211277;59;1233;-69
2021/12/10 04:05:48;;;;;;;;;;;;;;;;;;2210896;59;1204;-69
2021/12/10 04:08:21;;;;;;;;;;;;;;;;;;2210963;67;1113;-69
2021/12/10 04:10:57;;;;;;;;;;;;;;;;;;2210912;59;1934;-69
2021/12/10 04:13:31;;;;;;;;;;;;;;;;;;2211638;59;1424;-69
2021/12/10 04:16:04;;;;;;;;;;;;;;;;;;2211160;67;1270;-69
2021/12/10 04:18:38;;;;;;;;;;;;;;;;;;2210578;59;1338;-69
2021/12/10 04:21:12;;;;;;;;;;;;;;;;;;2211862;59;1612;-69
2021/12/10 04:23:46;;;;;;;;;;;;;;;;;;2210771;59;1290;-69
2021/12/10 04:26:24;;;;;;;;;;;;;;;;;;2208533;59;1417;-69
2021/12/10 04:28:57;;;;;;;;;;;;;;;;;;2210435;67;1346;-69
2021/12/10 04:31:31;;;;;;;;;;;;;;;;;;2210724;59;1928;-69
2021/12/10 04:34:04;;;;;;;;;;;;;;;;;;2210565;59;1124;-69
2021/12/10 04:36:37;;;;;;;;;;;;;;;;;;2208196;59;2081;-69
2021/12/10 04:39:11;;;;;;;;;;;;;;;;;;2211157;59;1203;-69
2021/12/10 04:41:47;;;;;;;;;;;;;;;;;;2210566;67;1199;-69
2021/12/10 04:44:21;;;;;;;;;;;;;;;;;;2211453;67;1129;-68
2021/12/10 04:46:54;;;;;;;;;;;;;;;;;;2210465;59;1424;-69
2021/12/10 04:49:27;;;;;;;;;;;;;;;;;;2210997;59;1287;-69
2021/12/10 04:52:00;;;;;;;;;;;;;;;;;;2209060;59;1987;-69
2021/12/10 04:54:33;;;;;;;;;;;;;;;;;;2211070;67;1148;-68
2021/12/10 04:57:10;;;;;;;;;;;;;;;;;;2210471;67;1212;-69
2021/12/10 04:59:43;;;;;;;;;;;;;;;;;;2210206;67;1272;-68
2021/12/10 05:02:18;;;;;;;;;;;;;;;;;;2210942;59;1520;-69
2021/12/10 05:04:56;;;;;;;;;;;;;;;;;;2211902;59;1239;-69
2021/12/10 05:07:33;;;;;;;;;;;;;;;;;;2210709;67;1145;-69
2021/12/10 05:10:09;;;;;;;;;;;;;;;;;;2210647;67;1112;-68
2021/12/10 05:12:45;;;;;;;;;;;;;;;;;;2210572;59;1948;-69
2021/12/10 05:15:19;;;;;;;;;;;;;;;;;;2210582;67;1116;-69
2021/12/10 05:17:53;;;;;;;;;;;;;;;;;;2210634;59;1239;-69
2021/12/10 05:20:28;;;;;;;;;;;;;;;;;;2211297;59;1624;-69
2021/12/10 05:23:02;;;;;;;;;;;;;;;;;;2210274;59;1439;-68
2021/12/10 05:25:35;;;;;;;;;;;;;;;;;;2211095;67;1323;-69
2021/12/10 05:28:12;;;;;;;;;;;;;;;;;;2210805;60;1199;-68
2021/12/10 05:30:46;;;;;;;;;;;;;;;;;;2211827;59;1933;-68
2021/12/10 05:33:19;;;;;;;;;;;;;;;;;;2210744;59;1238;-69
2021/12/10 05:35:52;;;;;;;;;;;;;;;;;;2207483;59;1816;-69
2021/12/10 05:38:25;;;;;;;;;;;;;;;;;;2210535;59;1242;-68
2021/12/10 05:41:05;;;;;;;;;;;;;;;;;;2211613;59;1336;-68
2021/12/10 05:43:41;;;;;;;;;;;;;;;;;;2211850;59;1185;-69
2021/12/10 05:46:16;;;;;;;;;;;;;;;;;;2211837;59;1390;-68
2021/12/10 05:48:49;;;;;;;;;;;;;;;;;;2211663;67;1256;-69
2021/12/10 05:51:22;;;;;;;;;;;;;;;;;;2211988;59;1949;-69
2021/12/10 05:53:55;;;;;;;;;;;;;;;;;;2211105;59;1189;-69
2021/12/10 05:56:29;;;;;;;;;;;;;;;;;;2210835;59;1134;-69
2021/12/10 05:59:05;;;;;;;;;;;;;;;;;;2211178;67;1183;-69
2021/12/10 06:01:39;;;;;;;;;;;;;;;;;;2211967;67;1252;-69
2021/12/10 06:04:12;;;;;;;;;;;;;;;;;;2209950;67;1179;-69
2021/12/10 06:06:45;;;;;;;;;;;;;;;;;;2211103;67;1115;-69
2021/12/10 06:09:19;;;;;;;;;;;;;;;;;;2210961;67;1216;-68
2021/12/10 06:11:52;;;;;;;;;;;;;;;;;;2211122;59;1983;-68
2021/12/10 06:14:28;;;;;;;;;;;;;;;;;;2211478;67;1111;-69
2021/12/10 06:17:01;;;;;;;;;;;;;;;;;;2211448;67;1113;-69
2021/12/10 06:19:34;;;;;;;;;;;;;;;;;;2212024;59;1535;-70
2021/12/10 06:22:08;;;;;;;;;;;;;;;;;;2207022;67;1396;-69
2021/12/10 06:24:41;;;;;;;;;;;;;;;;;;2210609;59;1693;-68
2021/12/10 06:27:14;;;;;;;;;;;;;;;;;;2207691;67;1229;-69
2021/12/10 06:29:50;;;;;;;;;;;;;;;;;;2211178;59;1501;-69
2021/12/10 06:32:24;;;;;;;;;;;;;;;;;;2210794;59;1923;-69
2021/12/10 06:34:57;;;;;;;;;;;;;;;;;;2209864;59;1729;-69
2021/12/10 06:37:30;;;;;;;;;;;;;;;;;;2211273;67;1220;-69
2021/12/10 06:40:03;;;;;;;;;;;;;;;;;;2210886;67;1045;-69
2021/12/10 06:42:37;;;;;;;;;;;;;;;;;;2211608;59;1734;-69
2021/12/10 06:45:15;;;;;;;;;;;;;;;;;;2211008;59;1704;-69
2021/12/10 06:47:50;;;;;;;;;;;;;;;;;;2210866;59;1240;-69
2021/12/10 06:50:25;;;;;;;;;;;;;;;;;;2207853;59;1824;-69
2021/12/10 06:52:58;;;;;;;;;;;;;;;;;;2211274;59;1941;-68
2021/12/10 06:55:33;;;;;;;;;;;;;;;;;;2208223;59;1775;-68
2021/12/10 06:58:07;;;;;;;;;;;;;;;;;;2211824;59;1101;-69
2021/12/10 07:00:44;;;;;;;;;;;;;;;;;;2210971;67;1032;-68
2021/12/10 07:03:19;;;;;;;;;;;;;;;;;;2211074;59;1344;-68
2021/12/10 07:05:54;;;;;;;;;;;;;;;;;;2212184;67;1255;-69
2021/12/10 07:08:29;;;;;;;;;;;;;;;;;;2212076;67;1235;-68
2021/12/10 07:11:03;;;;;;;;;;;;;;;;;;2211416;67;1925;-68
2021/12/10 07:13:38;;;;;;;;;;;;;;;;;;2207853;59;2176;-69
2021/12/10 07:16:15;;;;;;;;;;;;;;;;;;2210830;59;1768;-69
2021/12/10 07:18:48;;;;;;;;;;;;;;;;;;2211500;59;1433;-69
2021/12/10 07:21:22;;;;;;;;;;;;;;;;;;2208355;67;1565;-69
2021/12/10 07:23:55;;;;;;;;;;;;;;;;;;2210554;59;2068;-68
2021/12/10 07:26:30;;;;;;;;;;;;;;;;;;2211427;67;1331;-68
2021/12/10 07:29:04;;;;;;;;;;;;;;;;;;2211704;67;1164;-68
2021/12/10 07:31:41;;;;;;;;;;;;;;;;;;2211245;67;1979;-69
2021/12/10 07:34:15;;;;;;;;;;;;;;;;;;2212628;59;1174;-68
2021/12/10 07:36:48;;;;;;;;;;;;;;;;;;2209647;59;2719;-69
2021/12/10 07:39:21;;;;;;;;;;;;;;;;;;2210030;59;1631;-68
2021/12/10 07:41:54;;;;;;;;;;;;;;;;;;2210849;67;1205;-69
2021/12/10 07:44:27;;;;;;;;;;;;;;;;;;2211281;59;1609;-68
2021/12/10 07:47:08;;;;;;;;;;;;;;;;;;2209749;59;2667;-68
2021/12/10 07:49:41;;;;;;;;;;;;;;;;;;2209859;59;2352;-68
2021/12/10 07:52:22;;;;;;;;;;;;;;;;;;2210614;59;1941;-69
2021/12/10 07:54:56;;;;;;;;;;;;;;;;;;2210519;59;1224;-69
2021/12/10 07:57:29;;;;;;;;;;;;;;;;;;2211828;67;1173;-69
2021/12/10 08:00:03;;;;;;;;;;;;;;;;;;2211558;59;1078;-69
2021/12/10 08:02:39;;;;;;;;;;;;;;;;;;2211506;59;1414;-69
2021/12/10 08:05:13;;;;;;;;;;;;;;;;;;2211979;59;1216;-69
2021/12/10 08:07:46;;;;;;;;;;;;;;;;;;2210942;59;1862;-69
2021/12/10 08:10:20;;;;;;;;;;;;;;;;;;2211332;67;1199;-69
2021/12/10 08:12:53;;;;;;;;;;;;;;;;;;2210933;59;1985;-69
2021/12/10 08:15:26;;;;;;;;;;;;;;;;;;2211603;67;1136;-69
2021/12/10 08:18:02;;;;;;;;;;;;;;;;;;2211676;59;1276;-69
2021/12/10 08:20:35;;;;;;;;;;;;;;;;;;2211810;59;1630;-69
2021/12/10 08:23:09;;;;;;;;;;;;;;;;;;2211189;67;1198;-69
2021/12/10 08:25:42;;;;;;;;;;;;;;;;;;2211091;59;1650;-69
2021/12/10 08:28:15;;;;;;;;;;;;;;;;;;2211267;60;1144;-69
2021/12/10 08:30:48;;;;;;;;;;;;;;;;;;2210951;59;1533;-69
2021/12/10 08:33:26;;;;;;;;;;;;;;;;;;2210285;59;1937;-69
2021/12/10 08:36:01;;;;;;;;;;;;;;;;;;2210600;59;2068;-69
2021/12/10 08:38:36;;;;;;;;;;;;;;;;;;2210759;59;1749;-69
2021/12/10 08:41:10;;;;;;;;;;;;;;;;;;2207877;67;1238;-69
2021/12/10 08:43:44;;;;;;;;;;;;;;;;;;2211591;59;1719;-69
2021/12/10 08:46:18;;;;;;;;;;;;;;;;;;2210969;59;1136;-69
2021/12/10 08:48:55;;;;;;;;;;;;;;;;;;2207555;67;1406;-69
2021/12/10 08:51:30;;;;;;;;;;;;;;;;;;2209316;67;2037;-69
2021/12/10 08:54:04;;;;;;;;;;;;;;;;;;2206992;53;3529;-70
2021/12/10 08:56:38;;;;;;;;;;;;;;;;;;2204535;59;1598;-70
2021/12/10 08:59:11;;;;;;;;;;;;;;;;;;2206160;67;1138;-70
2021/12/10 09:01:45;;;;;;;;;;;;;;;;;;2205867;59;1256;-70
2021/12/10 09:04:21;;;;;;;;;;;;;;;;;;2205217;59;1236;-70
2021/12/10 09:06:56;;;;;;;;;;;;;;;;;;2205188;59;1058;-70
2021/12/10 09:09:30;;;;;;;;;;;;;;;;;;2204041;59;1088;-70
2021/12/10 09:12:05;;;;;;;;;;;;;;;;;;2202087;59;1944;-70
2021/12/10 09:14:43;;;;;;;;;;;;;;;;;;2203162;59;1753;-70
2021/12/10 09:17:21;;;;;;;;;;;;;;;;;;2200963;59;1607;-70
2021/12/10 09:19:58;;;;;;;;;;;;;;;;;;2203007;59;1479;-70
2021/12/10 09:22:31;;;;;;;;;;;;;;;;;;2202809;59;1287;-70
2021/12/10 09:25:06;;;;;;;;;;;;;;;;;;2204201;59;1816;-70
2021/12/10 09:27:40;;;;;;;;;;;;;;;;;;2202498;59;2761;-70
2021/12/10 09:30:15;;;;;;;;;;;;;;;;;;2203412;59;1480;-70
2021/12/10 09:32:48;;;;;;;;;;;;;;;;;;2204823;67;1922;-71
2021/12/10 09:35:26;;;;;;;;;;;;;;;;;;2204513;59;1769;-70
2021/12/10 09:37:59;;;;;;;;;;;;;;;;;;2206012;59;1472;-70
2021/12/10 09:40:34;;;;;;;;;;;;;;;;;;2204113;67;1199;-70
2021/12/10 09:43:08;;;;;;;;;;;;;;;;;;2204091;59;1259;-70
2021/12/10 09:45:42;;;;;;;;;;;;;;;;;;2203857;59;1853;-71
2021/12/10 09:48:17;;;;;;;;;;;;;;;;;;2203373;67;1107;-71
2021/12/10 09:50:56;;;;;;;;;;;;;;;;;;2203559;59;1829;-71
2021/12/10 09:53:32;;;;;;;;;;;;;;;;;;2204297;59;1983;-71
2021/12/10 09:56:06;;;;;;;;;;;;;;;;;;2204067;67;1262;-71
2021/12/10 09:58:40;;;;;;;;;;;;;;;;;;2205458;67;1313;-70
2021/12/10 10:01:15;;;;;;;;;;;;;;;;;;2206388;59;1366;-71
2021/12/10 10:03:50;;;;;;;;;;;;;;;;;;2205097;59;1211;-71
2021/12/10 10:06:26;;;;;;;;;;;;;;;;;;2205127;67;1105;-70
2021/12/10 10:09:00;;;;;;;;;;;;;;;;;;2205575;59;1151;-71
2021/12/10 10:11:35;;;;;;;;;;;;;;;;;;2205778;59;1203;-71
2021/12/10 10:14:09;;;;;;;;;;;;;;;;;;2204034;59;2054;-71
2021/12/10 10:16:44;;;;;;;;;;;;;;;;;;2204993;67;1111;-71
2021/12/10 10:19:19;;;;;;;;;;;;;;;;;;2204724;59;1475;-71
2021/12/10 10:21:56;;;;;;;;;;;;;;;;;;2204746;59;1841;-71
2021/12/10 10:24:30;;;;;;;;;;;;;;;;;;2204629;59;1282;-70
2021/12/10 10:27:06;;;;;;;;;;;;;;;;;;2203466;59;2693;-70
2021/12/10 10:29:41;;;;;;;;;;;;;;;;;;2203309;59;2829;-71
2021/12/10 10:32:17;;;;;;;;;;;;;;;;;;2205091;59;1943;-71
2021/12/10 10:34:52;;;;;;;;;;;;;;;;;;2206026;59;1204;-71
2021/12/10 10:37:28;;;;;;;;;;;;;;;;;;2204266;59;1454;-71
2021/12/10 10:40:01;;;;;;;;;;;;;;;;;;2204913;59;1734;-71
2021/12/10 10:42:35;;;;;;;;;;;;;;;;;;2205055;59;1167;-71
2021/12/10 10:45:10;;;;;;;;;;;;;;;;;;2204872;59;1105;-70
2021/12/10 10:47:43;;;;;;;;;;;;;;;;;;2206930;67;1228;-71
2021/12/10 10:50:18;;;;;;;;;;;;;;;;;;2203823;67;1132;-70
2021/12/10 10:52:55;;;;;;;;;;;;;;;;;;2205745;59;1980;-71
2021/12/10 10:55:29;;;;;;;;;;;;;;;;;;2205313;67;1123;-70
2021/12/10 10:58:04;;;;;;;;;;;;;;;;;;2201036;59;1704;-69
2021/12/10 11:00:44;;;;;;;;;;;;;;;;;;2205245;67;1265;-69
2021/12/10 11:03:21;;;;;;;;;;;;;;;;;;2203177;59;1865;-69
2021/12/10 11:05:56;;;;;;;;;;;;;;;;;;2203869;67;1245;-69
2021/12/10 11:08:33;;;;;;;;;;;;;;;;;;2196231;59;13463;-69
2021/12/10 11:11:08;;;;;;;;;;;;;;;;;;2200492;59;1273;-69
2021/12/10 11:13:41;;;;;;;;;;;;;;;;;;2201086;59;1933;-69
2021/12/10 11:16:15;;;;;;;;;;;;;;;;;;2200269;59;1154;-69
2021/12/10 11:18:51;;;;;;;;;;;;;;;;;;2199976;59;1742;-69
2021/12/10 11:21:36;;;;;;;;;;;;;;;;;;2198316;59;1858;-69
2021/12/10 11:24:15;;;;;;;;;;;;;;;;;;2198495;59;1975;-69
2021/12/10 11:26:51;;;;;;;;;;;;;;;;;;2199462;67;1161;-69
2021/12/10 11:29:34;;;;;;;;;;;;;;;;;;2199561;60;1555;-69
2021/12/10 11:32:09;;;;;;;;;;;;;;;;;;2199890;59;1639;-69
2021/12/10 11:34:53;;;;;;;;;;;;;;;;;;2199906;59;1991;-69
2021/12/10 11:37:45;;;;;;;;;;;;;;;;;;2199822;59;1426;-69
2021/12/10 11:40:32;;;;;;;;;;;;;;;;;;2199807;67;1184;-69
2021/12/10 11:43:18;;;;;;;;;;;;;;;;;;2200829;59;1266;-69
2021/12/10 11:46:04;;;;;;;;;;;;;;;;;;2200834;67;1191;-69
2021/12/10 11:48:39;;;;;;;;;;;;;;;;;;2201262;67;1162;-69
2021/12/10 11:51:13;;;;;;;;;;;;;;;;;;2201152;67;1091;-69
2021/12/10 11:53:48;;;;;;;;;;;;;;;;;;2201330;59;1925;-69
2021/12/10 11:56:26;;;;;;;;;;;;;;;;;;2201897;67;1102;-68
2021/12/10 11:59:13;;;;;;;;;;;;;;;;;;2202019;59;1181;-68
2021/12/10 12:01:49;;;;;;;;;;;;;;;;;;2200200;59;1253;-69
2021/12/10 12:04:24;;;;;;;;;;;;;;;;;;2200946;59;1199;-69
2021/12/10 12:07:16;;;;;;;;;;;;;;;;;;2201259;59;1299;-68
2021/12/10 12:09:50;;;;;;;;;;;;;;;;;;2199855;67;1325;-69
2021/12/10 12:12:28;;;;;;;;;;;;;;;;;;2201063;60;1215;-69
2021/12/10 12:15:11;;;;;;;;;;;;;;;;;;2196749;67;2392;-69
2021/12/10 12:17:45;;;;;;;;;;;;;;;;;;2201121;67;1282;-68
2021/12/10 12:20:30;;;;;;;;;;;;;;;;;;2200770;59;1775;-69
2021/12/10 12:25:57;;;;;;;;;;;;;;;;;;2200344;67;1197;-69
2021/12/10 12:28:33;;;;;;;;;;;;;;;;;;2200562;67;1195;-69
2021/12/10 12:31:09;;;;;;;;;;;;;;;;;;2201025;59;1482;-69
2021/12/10 12:33:58;;;;;;;;;;;;;;;;;;2201463;67;1918;-69
2021/12/10 12:36:34;;;;;;;;;;;;;;;;;;2200952;59;1078;-69
2021/12/10 12:39:08;;;;;;;;;;;;;;;;;;2200645;67;1194;-69
2021/12/10 12:41:45;;;;;;;;;;;;;;;;;;2200909;59;1206;-69
2021/12/10 12:44:23;;;;;;;;;;;;;;;;;;2200411;67;1256;-69
2021/12/10 12:47:12;;;;;;;;;;;;;;;;;;2201157;59;1286;-68
2021/12/10 12:50:09;;;;;;;;;;;;;;;;;;2201002;67;1790;-69
2021/12/10 12:52:45;;;;;;;;;;;;;;;;;;2198054;59;1240;-68
2021/12/10 12:55:22;;;;;;;;;;;;;;;;;;2200901;67;1918;-69
2021/12/10 12:57:57;;;;;;;;;;;;;;;;;;2201342;59;1118;-68
2021/12/10 13:00:37;;;;;;;;;;;;;;;;;;2201107;67;1171;-68
2021/12/10 13:03:11;;;;;;;;;;;;;;;;;;2200807;59;1266;-68
2021/12/10 13:05:49;;;;;;;;;;;;;;;;;;2200669;67;1320;-68
2021/12/10 13:08:26;;;;;;;;;;;;;;;;;;2200498;59;1104;-68
2021/12/10 13:11:08;;;;;;;;;;;;;;;;;;2200979;67;1242;-68
2021/12/10 13:13:45;;;;;;;;;;;;;;;;;;2195978;67;2029;-68
2021/12/10 13:16:31;;;;;;;;;;;;;;;;;;2200380;67;1278;-68
2021/12/10 13:19:04;;;;;;;;;;;;;;;;;;2202008;59;1497;-68
2021/12/10 13:21:37;;;;;;;;;;;;;;;;;;2201367;59;1835;-68
2021/12/10 13:24:12;;;;;;;;;;;;;;;;;;2200616;67;1442;-68
2021/12/10 13:26:45;;;;;;;;;;;;;;;;;;2200784;67;1249;-68
2021/12/10 13:29:18;;;;;;;;;;;;;;;;;;2200333;59;1329;-68
2021/12/10 13:31:54;;;;;;;;;;;;;;;;;;2200788;59;1491;-68
2021/12/10 13:34:28;;;;;;;;;;;;;;;;;;2200539;67;1928;-68
2021/12/10 13:37:02;;;;;;;;;;;;;;;;;;2200725;67;1089;-68
2021/12/10 13:39:35;;;;;;;;;;;;;;;;;;2202038;67;1205;-68
2021/12/10 13:42:08;;;;;;;;;;;;;;;;;;2200493;59;1226;-68
2021/12/10 13:44:45;;;;;;;;;;;;;;;;;;2200603;67;1278;-68
2021/12/10 13:47:27;;;;;;;;;;;;;;;;;;2201582;67;1184;-68
2021/12/10 13:50:04;;;;;;;;;;;;;;;;;;2200683;67;1259;-68
2021/12/10 13:52:44;;;;;;;;;;;;;;;;;;2199451;59;1226;-68
2021/12/10 13:55:20;;;;;;;;;;;;;;;;;;2199970;67;1936;-68
2021/12/10 13:58:11;;;;;;;;;;;;;;;;;;2200869;67;1229;-68
2021/12/10 14:00:46;;;;;;;;;;;;;;;;;;2201420;67;1225;-68
2021/12/10 14:03:38;;;;;;;;;;;;;;;;;;2199847;67;1248;-68
2021/12/10 14:06:12;;;;;;;;;;;;;;;;;;2200894;67;1261;-68
2021/12/10 14:08:47;;;;;;;;;;;;;;;;;;2200941;67;1209;-68
2021/12/10 14:11:26;;;;;;;;;;;;;;;;;;2200284;59;1537;-67
2021/12/10 14:14:05;;;;;;;;;;;;;;;;;;2197693;59;1929;-66
2021/12/10 14:16:54;;;;;;;;;;;;;;;;;;2199119;59;2055;-67
2021/12/10 14:19:35;;;;;;;;;;;;;;;;;;2199881;59;1752;-67
2021/12/10 14:22:09;;;;;;;;;;;;;;;;;;2199277;59;1724;-68
2021/12/10 14:24:45;;;;;;;;;;;;;;;;;;2200696;59;1589;-67
2021/12/10 14:27:21;;;;;;;;;;;;;;;;;;2200070;59;1807;-67
2021/12/10 14:30:19;;;;;;;;;;;;;;;;;;2198687;59;1590;-67
2021/12/10 14:32:59;;;;;;;;;;;;;;;;;;2199027;67;1243;-67
2021/12/10 14:35:39;;;;;;;;;;;;;;;;;;2201271;67;1978;-68
2021/12/10 14:38:13;;;;;;;;;;;;;;;;;;2199368;59;2609;-68
2021/12/10 14:40:50;;;;;;;;;;;;;;;;;;2199423;59;2725;-69
2021/12/10 14:43:29;;;;;;;;;;;;;;;;;;2200725;59;1407;-68
2021/12/10 14:46:08;;;;;;;;;;;;;;;;;;2198491;59;1790;-68
2021/12/10 14:48:42;;;;;;;;;;;;;;;;;;2196905;67;1245;-68
2021/12/10 14:51:20;;;;;;;;;;;;;;;;;;2199626;59;1717;-68
2021/12/10 14:53:54;;;;;;;;;;;;;;;;;;2204689;59;3675;-69
2021/12/10 14:56:33;;;;;;;;;;;;;;;;;;2203735;59;1499;-69
2021/12/10 14:59:08;;;;;;;;;;;;;;;;;;2206553;59;1167;-69
2021/12/10 15:01:44;;;;;;;;;;;;;;;;;;2202514;59;2273;-69
2021/12/10 15:04:35;;;;;;;;;;;;;;;;;;2205517;59;1286;-70
2021/12/10 15:07:17;;;;;;;;;;;;;;;;;;2206162;67;1273;-69
2021/12/10 15:09:58;;;;;;;;;;;;;;;;;;2207784;59;1273;-70
2021/12/10 15:12:50;;;;;;;;;;;;;;;;;;2204140;59;1499;-70
2021/12/10 15:15:25;;;;;;;;;;;;;;;;;;2207367;67;1965;-69
2021/12/10 15:17:58;;;;;;;;;;;;;;;;;;2207292;59;1449;-70
2021/12/10 15:20:33;;;;;;;;;;;;;;;;;;2207534;59;1646;-70
2021/12/10 15:23:10;;;;;;;;;;;;;;;;;;2207957;59;1323;-70
2021/12/10 15:25:43;;;;;;;;;;;;;;;;;;2207836;59;1271;-69
2021/12/10 15:28:16;;;;;;;;;;;;;;;;;;2207971;59;1129;-69
2021/12/10 15:30:51;;;;;;;;;;;;;;;;;;2207993;59;1780;-69
2021/12/10 15:33:26;;;;;;;;;;;;;;;;;;2207913;67;1193;-69
2021/12/10 15:36:00;;;;;;;;;;;;;;;;;;2205968;67;1938;-69
2021/12/10 15:38:38;;;;;;;;;;;;;;;;;;2204996;59;2795;-69
2021/12/10 15:41:14;;;;;;;;;;;;;;;;;;2204757;59;2568;-69
2021/12/10 15:43:48;;;;;;;;;;;;;;;;;;2201108;59;1628;-68
2021/12/10 15:46:23;;;;;;;;;;;;;;;;;;2204977;59;1232;-69
2021/12/10 15:48:58;;;;;;;;;;;;;;;;;;2204495;67;1216;-70
2021/12/10 15:51:34;;;;;;;;;;;;;;;;;;2205826;59;1155;-69
2021/12/10 15:54:12;;;;;;;;;;;;;;;;;;2205143;59;1933;-69
2021/12/10 15:56:47;;;;;;;;;;;;;;;;;;2205840;59;1143;-70
2021/12/10 15:59:23;;;;;;;;;;;;;;;;;;2207507;59;1156;-69
2021/12/10 16:01:58;;;;;;;;;;;;;;;;;;2207695;59;1188;-69
2021/12/10 16:04:36;;;;;;;;;;;;;;;;;;2207751;59;1751;-69
2021/12/10 16:07:12;;;;;;;;;;;;;;;;;;2207420;67;1158;-69
2021/12/10 16:09:48;;;;;;;;;;;;;;;;;;2205672;59;1127;-70
2021/12/10 16:12:21;;;;;;;;;;;;;;;;;;2204422;59;1420;-69
2021/12/10 16:14:54;;;;;;;;;;;;;;;;;;2207123;67;2001;-69
2021/12/10 16:17:29;;;;;;;;;;;;;;;;;;2206908;59;1722;-69
2021/12/10 16:20:02;;;;;;;;;;;;;;;;;;2207089;59;1667;-69
2021/12/10 16:22:36;;;;;;;;;;;;;;;;;;2206365;59;1295;-69
2021/12/10 16:25:13;;;;;;;;;;;;;;;;;;2204032;59;1426;-68
2021/12/10 16:27:48;;;;;;;;;;;;;;;;;;2206532;59;1737;-68
2021/12/10 16:30:22;;;;;;;;;;;;;;;;;;2204269;59;1446;-68
2021/12/10 16:32:57;;;;;;;;;;;;;;;;;;2204437;67;1233;-69
2021/12/10 16:35:32;;;;;;;;;;;;;;;;;;2202900;59;1992;-69
2021/12/10 16:38:08;;;;;;;;;;;;;;;;;;2202995;67;1162;-69
2021/12/10 16:40:46;;;;;;;;;;;;;;;;;;2205172;59;2723;-69
2021/12/10 16:43:21;;;;;;;;;;;;;;;;;;2204425;67;2639;-69
2021/12/10 16:45:55;;;;;;;;;;;;;;;;;;2202157;59;1736;-69
2021/12/10 16:48:30;;;;;;;;;;;;;;;;;;2206781;67;1094;-70
2021/12/10 16:51:06;;;;;;;;;;;;;;;;;;2205256;67;1288;-70
2021/12/10 16:53:40;;;;;;;;;;;;;;;;;;2204850;59;1254;-70
2021/12/10 16:56:20;;;;;;;;;;;;;;;;;;2206680;59;1929;-70
2021/12/10 16:58:54;;;;;;;;;;;;;;;;;;2206671;67;1752;-70
2021/12/10 17:01:30;;;;;;;;;;;;;;;;;;2206793;59;1189;-70
2021/12/10 17:04:04;;;;;;;;;;;;;;;;;;2206464;67;1154;-70
2021/12/10 17:06:39;;;;;;;;;;;;;;;;;;2207310;67;1131;-70
2021/12/10 17:09:15;;;;;;;;;;;;;;;;;;2207846;67;1105;-70
2021/12/10 17:11:54;;;;;;;;;;;;;;;;;;2207115;59;1296;-70
2021/12/10 17:14:30;;;;;;;;;;;;;;;;;;2205795;59;1921;-70
2021/12/10 17:17:05;;;;;;;;;;;;;;;;;;2203948;59;1594;-70
2021/12/10 17:19:40;;;;;;;;;;;;;;;;;;2204339;59;1502;-70
2021/12/10 17:22:16;;;;;;;;;;;;;;;;;;2207587;59;1347;-70
2021/12/10 17:24:50;;;;;;;;;;;;;;;;;;2205821;59;1190;-70
2021/12/10 17:27:28;;;;;;;;;;;;;;;;;;2207311;67;1165;-70
2021/12/10 17:30:06;;;;;;;;;;;;;;;;;;2206443;59;1608;-70
2021/12/10 17:32:40;;;;;;;;;;;;;;;;;;2204910;67;1226;-70
2021/12/10 17:35:16;;;;;;;;;;;;;;;;;;2203564;67;1995;-70
2021/12/10 17:37:49;;;;;;;;;;;;;;;;;;2202545;59;1818;-70
2021/12/10 17:40:25;;;;;;;;;;;;;;;;;;2206011;59;2542;-70
2021/12/10 17:43:03;;;;;;;;;;;;;;;;;;2204737;59;2322;-70
2021/12/10 17:45:38;;;;;;;;;;;;;;;;;;2203465;67;1121;-70
2021/12/10 17:48:12;;;;;;;;;;;;;;;;;;2206167;59;1122;-70
2021/12/10 17:50:47;;;;;;;;;;;;;;;;;;2206381;59;1263;-70
2021/12/10 17:53:21;;;;;;;;;;;;;;;;;;2207374;59;1341;-70
2021/12/10 17:55:56;;;;;;;;;;;;;;;;;;2206269;67;1991;-70
2021/12/10 17:58:33;;;;;;;;;;;;;;;;;;2205136;61;2190;-70
2021/12/10 18:01:08;;;;;;;;;;;;;;;;;;2206876;67;1082;-70
2021/12/10 18:03:42;;;;;;;;;;;;;;;;;;2204435;59;1562;-70
2021/12/10 18:06:16;;;;;;;;;;;;;;;;;;2207532;59;1099;-70
2021/12/10 18:08:49;;;;;;;;;;;;;;;;;;2205747;67;1123;-70
2021/12/10 18:11:22;;;;;;;;;;;;;;;;;;2206082;59;1341;-70
2021/12/10 18:13:58;;;;;;;;;;;;;;;;;;2204588;67;1235;-70
2021/12/10 18:16:32;;;;;;;;;;;;;;;;;;2205327;67;1925;-70
2021/12/10 18:19:06;;;;;;;;;;;;;;;;;;2205978;59;1777;-70